Time;durP1;ratioP1;P1;durP2;ratioP2;P2;SDS_P1;SDS_P2;PMS_P1;PMS_P2;Temp;Humidity;BMP_temperature;BMP_pressure;BME280_temperature;BME280_humidity;BME280_pressure;Samples;Min_cycle;Max_cycle;Signal;HPM_P1;HPM_P2
2022/10/30 00:01:55;;;;;;;;;;;16.20;99.90;;;;;;5050259;28;19920;-61
2022/10/30 00:04:21;;;;;;;;;;;16.20;99.90;;;;;;5050562;28;20348;-60
2022/10/30 00:06:47;;;;;;;;;;;16.30;99.90;;;;;;5048247;28;20375;-60
2022/10/30 00:09:12;;;;;;;;;;;16.30;99.90;;;;;;5046381;28;19923;-60
2022/10/30 00:11:39;;;;;;;;;;;16.40;99.90;;;;;;5058801;28;19948;-61
2022/10/30 00:14:04;;;;;;;;;;;16.50;99.90;;;;;;5059562;28;19973;-61
2022/10/30 00:16:30;;;;;;;;;;;16.60;99.90;;;;;;5047990;28;20377;-61
2022/10/30 00:18:55;;;;;;;;;;;16.60;99.90;;;;;;5047253;28;20023;-62
2022/10/30 00:21:21;;;;;;;;;;;16.60;99.90;;;;;;5047602;28;20382;-61
2022/10/30 00:23:47;;;;;;;;;;;16.50;99.90;;;;;;5056013;28;20431;-61
2022/10/30 00:26:13;;;;;;;;;;;16.50;99.90;;;;;;5057462;28;19996;-61
2022/10/30 00:28:38;;;;;;;;;;;16.40;99.90;;;;;;5050982;28;20058;-61
2022/10/30 00:31:04;;;;;;;;;;;16.40;99.90;;;;;;5051770;28;20038;-61
2022/10/30 00:33:30;;;;;;;;;;;16.30;99.90;;;;;;5050492;28;19912;-59
2022/10/30 00:35:55;;;;;;;;;;;16.30;99.90;;;;;;5053915;28;19912;-60
2022/10/30 00:38:21;;;;;;;;;;;16.30;99.90;;;;;;5058630;28;19920;-60
2022/10/30 00:40:46;;;;;;;;;;;16.20;99.90;;;;;;5050759;28;20369;-59
2022/10/30 00:43:44;;;;;;;;;;;16.10;99.90;;;;;;5060406;28;19917;-60
2022/10/30 00:46:28;;;;;;;;;;;16.10;99.90;;;;;;5059717;28;19920;-59
2022/10/30 00:48:58;;;;;;;;;;;16.00;99.90;;;;;;5045999;28;19913;-60
2022/10/30 00:51:24;;;;;;;;;;;15.90;99.90;;;;;;5058830;28;20310;-61
2022/10/30 00:53:50;;;;;;;;;;;15.90;99.90;;;;;;5050855;28;20315;-60
2022/10/30 00:56:17;;;;;;;;;;;15.90;99.90;;;;;;5051889;28;19920;-60
2022/10/30 00:58:45;;;;;;;;;;;15.90;99.90;;;;;;5050428;28;20007;-59
2022/10/30 01:01:14;;;;;;;;;;;15.90;99.90;;;;;;5050998;28;20390;-62
2022/10/30 01:03:40;;;;;;;;;;;15.80;99.90;;;;;;5050513;28;20324;-59
2022/10/30 01:06:08;;;;;;;;;;;15.80;99.90;;;;;;5056491;28;20007;-59
2022/10/30 01:08:34;;;;;;;;;;;15.70;99.90;;;;;;5050604;28;19913;-59
2022/10/30 01:11:01;;;;;;;;;;;15.80;99.90;;;;;;5056099;28;19966;-61
2022/10/30 01:13:27;;;;;;;;;;;15.80;99.90;;;;;;5052917;28;20276;-62
2022/10/30 01:16:04;;;;;;;;;;;15.80;99.90;;;;;;5058021;28;19912;-62
2022/10/30 01:18:56;;;;;;;;;;;15.70;99.90;;;;;;5055977;28;19913;-59
2022/10/30 01:21:32;;;;;;;;;;;15.70;99.90;;;;;;5046653;28;20391;-59
2022/10/30 01:23:58;;;;;;;;;;;15.60;99.90;;;;;;5046291;28;19959;-60
2022/10/30 01:26:37;;;;;;;;;;;15.70;99.90;;;;;;5058227;28;19920;-59
2022/10/30 01:29:03;;;;;;;;;;;15.70;99.90;;;;;;5053578;28;19952;-61
2022/10/30 01:31:34;;;;;;;;;;;15.70;99.90;;;;;;5054276;28;19956;-61
2022/10/30 01:34:15;;;;;;;;;;;15.70;99.90;;;;;;5052241;28;20424;-61
2022/10/30 01:36:59;;;;;;;;;;;15.70;99.90;;;;;;5064743;28;19913;-61
2022/10/30 01:39:26;;;;;;;;;;;15.70;99.90;;;;;;5054792;28;19913;-59
2022/10/30 01:41:52;;;;;;;;;;;15.70;99.90;;;;;;5055598;28;19919;-61
2022/10/30 01:44:21;;;;;;;;;;;15.70;99.90;;;;;;5056876;28;19913;-61
2022/10/30 01:46:46;;;;;;;;;;;15.80;99.90;;;;;;5055552;28;19917;-61
2022/10/30 01:49:31;;;;;;;;;;;15.70;99.90;;;;;;5059223;28;19919;-60
2022/10/30 01:52:09;;;;;;;;;;;15.70;99.90;;;;;;5056279;28;19912;-61
2022/10/30 01:54:38;;;;;;;;;;;15.70;99.90;;;;;;5052669;28;19992;-61
2022/10/30 01:57:11;;;;;;;;;;;15.70;99.90;;;;;;5046831;28;19936;-61
2022/10/30 01:59:37;;;;;;;;;;;15.60;99.90;;;;;;5052463;28;19917;-61
2022/10/30 02:02:03;;;;;;;;;;;15.60;99.90;;;;;;5057241;28;20397;-61
2022/10/30 02:04:28;;;;;;;;;;;15.50;99.90;;;;;;5055744;28;20041;-61
2022/10/30 02:06:54;;;;;;;;;;;15.50;99.90;;;;;;5047023;28;20020;-61
2022/10/30 02:09:19;;;;;;;;;;;15.40;99.90;;;;;;5051241;28;20276;-60
2022/10/30 02:11:46;;;;;;;;;;;15.40;99.90;;;;;;5051744;28;20357;-61
2022/10/30 02:14:14;;;;;;;;;;;15.30;99.90;;;;;;5058874;28;19946;-61
2022/10/30 02:16:43;;;;;;;;;;;15.30;99.90;;;;;;5051970;28;19920;-61
2022/10/30 02:19:09;;;;;;;;;;;15.30;99.90;;;;;;5066051;28;19958;-61
2022/10/30 02:21:34;;;;;;;;;;;15.30;99.90;;;;;;5058127;28;19962;-61
2022/10/30 02:24:00;;;;;;;;;;;15.30;99.90;;;;;;5052927;28;19913;-61
2022/10/30 02:26:25;;;;;;;;;;;15.30;99.90;;;;;;5057272;28;19966;-61
2022/10/30 02:28:51;;;;;;;;;;;15.20;99.90;;;;;;5042070;28;19920;-60
2022/10/30 02:31:18;;;;;;;;;;;15.20;99.90;;;;;;5064628;28;19916;-61
2022/10/30 02:33:46;;;;;;;;;;;15.30;99.90;;;;;;5051815;28;19935;-61
2022/10/30 02:36:14;;;;;;;;;;;15.30;99.90;;;;;;5055497;28;19999;-61
2022/10/30 02:38:40;;;;;;;;;;;15.20;99.90;;;;;;5058942;28;19967;-61
2022/10/30 02:41:05;;;;;;;;;;;15.20;99.90;;;;;;5057259;28;19917;-61
2022/10/30 02:43:31;;;;;;;;;;;15.20;99.90;;;;;;5054139;28;19959;-61
2022/10/30 02:45:56;;;;;;;;;;;15.20;99.90;;;;;;5051974;28;19928;-61
2022/10/30 02:48:22;;;;;;;;;;;15.20;99.90;;;;;;5065495;28;19914;-61
2022/10/30 02:50:47;;;;;;;;;;;15.10;99.90;;;;;;5044914;28;19919;-61
2022/10/30 02:53:13;;;;;;;;;;;15.00;99.90;;;;;;5050476;28;19913;-61
2022/10/30 02:55:38;;;;;;;;;;;15.00;99.90;;;;;;5059214;28;19920;-61
2022/10/30 02:58:04;;;;;;;;;;;15.10;99.90;;;;;;5063771;28;19913;-61
2022/10/30 03:00:29;;;;;;;;;;;15.10;99.90;;;;;;5052204;28;19913;-61
2022/10/30 03:02:55;;;;;;;;;;;15.10;99.90;;;;;;5055563;28;19921;-61
2022/10/30 03:05:21;;;;;;;;;;;15.10;99.90;;;;;;5065544;28;19947;-61
2022/10/30 03:07:47;;;;;;;;;;;15.20;99.90;;;;;;5051171;28;20356;-61
2022/10/30 03:10:13;;;;;;;;;;;15.20;99.90;;;;;;5052876;28;19912;-61
2022/10/30 03:12:38;;;;;;;;;;;15.20;99.90;;;;;;5057835;28;19921;-61
2022/10/30 03:15:04;;;;;;;;;;;15.20;99.90;;;;;;5055953;28;20254;-61
2022/10/30 03:17:30;;;;;;;;;;;15.20;99.90;;;;;;5041505;28;20437;-61
2022/10/30 03:19:55;;;;;;;;;;;15.10;99.90;;;;;;5052679;28;20003;-61
2022/10/30 03:22:21;;;;;;;;;;;15.00;99.90;;;;;;5043454;28;20034;-61
2022/10/30 03:24:46;;;;;;;;;;;14.90;99.90;;;;;;5057330;28;19966;-61
2022/10/30 03:27:12;;;;;;;;;;;14.70;99.90;;;;;;5053858;28;20035;-62
2022/10/30 03:29:37;;;;;;;;;;;14.60;99.90;;;;;;5054940;28;19917;-61
2022/10/30 03:32:03;;;;;;;;;;;14.50;99.90;;;;;;5052322;28;19912;-61
2022/10/30 03:34:29;;;;;;;;;;;14.40;99.90;;;;;;5065259;28;19912;-61
2022/10/30 03:36:54;;;;;;;;;;;14.30;99.90;;;;;;5059928;28;19913;-61
2022/10/30 03:39:20;;;;;;;;;;;14.20;99.90;;;;;;5060713;28;19924;-61
2022/10/30 03:41:45;;;;;;;;;;;14.10;99.90;;;;;;5057173;28;20015;-60
2022/10/30 03:44:11;;;;;;;;;;;14.00;99.90;;;;;;5046621;28;20114;-61
2022/10/30 03:46:37;;;;;;;;;;;13.90;99.90;;;;;;5053923;28;20498;-61
2022/10/30 03:49:02;;;;;;;;;;;13.90;99.90;;;;;;5052176;28;19921;-61
2022/10/30 03:51:28;;;;;;;;;;;13.80;99.90;;;;;;5055783;28;20360;-61
2022/10/30 03:53:53;;;;;;;;;;;13.80;99.90;;;;;;5050051;28;19912;-60
2022/10/30 03:56:19;;;;;;;;;;;13.90;99.90;;;;;;5059099;28;19921;-61
2022/10/30 03:58:44;;;;;;;;;;;14.00;99.90;;;;;;5051427;28;19913;-61
2022/10/30 04:01:10;;;;;;;;;;;14.00;99.90;;;;;;5055969;28;19913;-61
2022/10/30 04:03:35;;;;;;;;;;;13.90;99.90;;;;;;5055065;28;19935;-61
2022/10/30 04:06:01;;;;;;;;;;;14.00;99.90;;;;;;5058328;28;20035;-61
2022/10/30 04:08:27;;;;;;;;;;;14.10;99.90;;;;;;5058361;28;19916;-61
2022/10/30 04:10:52;;;;;;;;;;;14.20;99.90;;;;;;5060847;28;19942;-61
2022/10/30 04:13:19;;;;;;;;;;;14.20;99.90;;;;;;5048438;28;19916;-61
2022/10/30 04:15:45;;;;;;;;;;;14.30;99.90;;;;;;5052687;28;20004;-59
2022/10/30 04:18:12;;;;;;;;;;;14.40;99.90;;;;;;5054795;28;19919;-60
2022/10/30 04:20:37;;;;;;;;;;;14.40;99.90;;;;;;5059434;28;20296;-60
2022/10/30 04:23:05;;;;;;;;;;;14.30;99.90;;;;;;5044591;28;19913;-60
2022/10/30 04:25:32;;;;;;;;;;;14.30;99.90;;;;;;5042735;28;19921;-60
2022/10/30 04:27:57;;;;;;;;;;;14.20;99.90;;;;;;5042303;28;19917;-60
2022/10/30 04:30:26;;;;;;;;;;;14.20;99.90;;;;;;5049919;28;19919;-60
2022/10/30 04:32:55;;;;;;;;;;;14.20;99.90;;;;;;5054684;28;19916;-60
2022/10/30 04:35:23;;;;;;;;;;;14.20;99.90;;;;;;5049789;28;19948;-60
2022/10/30 04:37:55;;;;;;;;;;;14.20;99.90;;;;;;5046775;28;20442;-60
2022/10/30 04:40:25;;;;;;;;;;;14.30;99.90;;;;;;5052278;28;19924;-61
2022/10/30 04:42:51;;;;;;;;;;;14.30;99.90;;;;;;5051112;28;19913;-60
2022/10/30 04:45:17;;;;;;;;;;;14.40;99.90;;;;;;5057610;28;19959;-60
2022/10/30 04:47:43;;;;;;;;;;;14.50;99.90;;;;;;5048641;28;19935;-61
2022/10/30 04:50:09;;;;;;;;;;;14.40;99.90;;;;;;5053042;28;19940;-60
2022/10/30 04:52:35;;;;;;;;;;;14.40;99.90;;;;;;5055365;28;19913;-61
2022/10/30 04:55:01;;;;;;;;;;;14.50;99.90;;;;;;5062178;28;19927;-61
2022/10/30 04:57:26;;;;;;;;;;;14.50;99.90;;;;;;5051137;28;19912;-59
2022/10/30 04:59:52;;;;;;;;;;;14.60;99.90;;;;;;5061205;28;19917;-61
2022/10/30 05:02:18;;;;;;;;;;;14.50;99.90;;;;;;5053193;28;20418;-60
2022/10/30 05:04:44;;;;;;;;;;;14.50;99.90;;;;;;5060277;28;19916;-61
2022/10/30 05:07:10;;;;;;;;;;;14.50;99.90;;;;;;5059978;28;19966;-61
2022/10/30 05:09:36;;;;;;;;;;;14.40;99.90;;;;;;5058521;28;19913;-61
2022/10/30 05:12:01;;;;;;;;;;;14.40;99.90;;;;;;5060329;28;19959;-60
2022/10/30 05:14:28;;;;;;;;;;;14.40;99.90;;;;;;5061229;28;19916;-61
2022/10/30 05:16:53;;;;;;;;;;;14.40;99.90;;;;;;5052433;28;19920;-64
2022/10/30 05:19:19;;;;;;;;;;;14.40;99.90;;;;;;5061011;28;19913;-61
2022/10/30 05:24:47;;;;;;;;;;;14.50;99.90;;;;;;5046417;28;20008;-61
2022/10/30 05:27:12;;;;;;;;;;;14.60;99.90;;;;;;5050637;28;19944;-61
2022/10/30 05:29:38;;;;;;;;;;;14.80;99.90;;;;;;5060144;28;19924;-61
2022/10/30 05:32:03;;;;;;;;;;;14.90;99.90;;;;;;5053410;28;19959;-61
2022/10/30 05:34:29;;;;;;;;;;;15.10;99.90;;;;;;5051187;28;20286;-61
2022/10/30 05:36:54;;;;;;;;;;;15.20;99.90;;;;;;5059799;28;20333;-61
2022/10/30 05:39:20;;;;;;;;;;;15.20;99.90;;;;;;5048726;28;20054;-61
2022/10/30 05:41:45;;;;;;;;;;;15.30;99.90;;;;;;5053470;28;20360;-59
2022/10/30 05:44:11;;;;;;;;;;;15.30;99.90;;;;;;5058602;28;19999;-59
2022/10/30 05:46:36;;;;;;;;;;;15.30;99.90;;;;;;5065142;28;19924;-60
2022/10/30 05:49:02;;;;;;;;;;;15.40;99.90;;;;;;5058591;28;19919;-59
2022/10/30 05:51:28;;;;;;;;;;;15.40;99.90;;;;;;5055285;28;19959;-60
2022/10/30 05:53:53;;;;;;;;;;;15.40;99.90;;;;;;5056041;28;19951;-61
2022/10/30 05:56:19;;;;;;;;;;;15.40;99.90;;;;;;5055068;28;19913;-60
2022/10/30 05:58:47;;;;;;;;;;;15.40;99.90;;;;;;5049605;28;19913;-61
2022/10/30 06:01:12;;;;;;;;;;;15.30;99.90;;;;;;5058923;28;20298;-61
2022/10/30 06:03:38;;;;;;;;;;;15.30;99.90;;;;;;5059655;28;20421;-60
2022/10/30 06:06:03;;;;;;;;;;;15.30;99.90;;;;;;5057487;28;20379;-61
2022/10/30 06:08:29;;;;;;;;;;;15.30;99.90;;;;;;5051900;28;19936;-61
2022/10/30 06:10:54;;;;;;;;;;;15.30;99.90;;;;;;5052059;28;19939;-61
2022/10/30 06:13:20;;;;;;;;;;;15.30;99.90;;;;;;5060639;28;19917;-60
2022/10/30 06:15:45;;;;;;;;;;;15.30;99.90;;;;;;5056471;28;20346;-61
2022/10/30 06:18:11;;;;;;;;;;;15.30;99.90;;;;;;5056236;28;19981;-61
2022/10/30 06:20:36;;;;;;;;;;;15.30;99.90;;;;;;5048692;28;19944;-60
2022/10/30 06:23:03;;;;;;;;;;;15.30;99.90;;;;;;5054983;28;19913;-60
2022/10/30 06:25:30;;;;;;;;;;;15.30;99.90;;;;;;5048937;28;19943;-61
2022/10/30 06:27:55;;;;;;;;;;;15.30;99.90;;;;;;5048989;28;19965;-60
2022/10/30 06:30:21;;;;;;;;;;;15.20;99.90;;;;;;5059773;28;19990;-61
2022/10/30 06:32:47;;;;;;;;;;;15.20;99.90;;;;;;5056885;28;19928;-60
2022/10/30 06:35:13;;;;;;;;;;;15.20;99.90;;;;;;5051712;28;20012;-61
2022/10/30 06:37:43;;;;;;;;;;;15.20;99.90;;;;;;5051510;28;19917;-61
2022/10/30 06:40:09;;;;;;;;;;;15.20;99.90;;;;;;5054025;28;19913;-61
2022/10/30 06:42:48;;;;;;;;;;;15.20;99.90;;;;;;5047983;28;19935;-62
2022/10/30 06:45:15;;;;;;;;;;;15.20;99.90;;;;;;5043070;28;20307;-60
2022/10/30 06:47:40;;;;;;;;;;;15.20;99.90;;;;;;5050075;28;19913;-61
2022/10/30 06:50:07;;;;;;;;;;;15.20;99.90;;;;;;5046661;28;19919;-61
2022/10/30 06:52:33;;;;;;;;;;;15.10;99.90;;;;;;5053943;28;19967;-60
2022/10/30 06:54:59;;;;;;;;;;;15.10;99.90;;;;;;5056165;28;19909;-60
2022/10/30 06:57:24;;;;;;;;;;;15.10;99.90;;;;;;5051077;28;19913;-60
2022/10/30 06:59:50;;;;;;;;;;;15.10;99.90;;;;;;5050056;28;19919;-61
2022/10/30 07:02:16;;;;;;;;;;;15.10;99.90;;;;;;5059307;28;19932;-61
2022/10/30 07:04:41;;;;;;;;;;;15.10;99.90;;;;;;5056048;28;19920;-60
2022/10/30 07:07:07;;;;;;;;;;;15.20;99.90;;;;;;5059130;28;19999;-61
2022/10/30 07:09:32;;;;;;;;;;;15.10;99.90;;;;;;5048800;28;19921;-61
2022/10/30 07:11:58;;;;;;;;;;;15.10;99.90;;;;;;5059345;28;19916;-61
2022/10/30 07:14:23;;;;;;;;;;;15.00;99.90;;;;;;5056502;28;19913;-61
2022/10/30 07:16:49;;;;;;;;;;;14.90;99.90;;;;;;5053601;28;19912;-61
2022/10/30 07:19:14;;;;;;;;;;;14.90;99.90;;;;;;5053796;28;19912;-61
2022/10/30 07:21:40;;;;;;;;;;;14.80;99.90;;;;;;5049880;28;20007;-61
2022/10/30 07:24:06;;;;;;;;;;;14.80;99.90;;;;;;5058807;28;19952;-61
2022/10/30 07:26:32;;;;;;;;;;;14.80;99.90;;;;;;5045892;28;20002;-61
2022/10/30 07:28:58;;;;;;;;;;;14.70;99.90;;;;;;5053312;28;19913;-62
2022/10/30 07:31:23;;;;;;;;;;;14.70;99.90;;;;;;5058553;28;20024;-61
2022/10/30 07:33:49;;;;;;;;;;;14.70;99.90;;;;;;5049477;28;19912;-62
2022/10/30 07:36:14;;;;;;;;;;;14.70;99.90;;;;;;5049036;28;19912;-63
2022/10/30 07:38:40;;;;;;;;;;;14.70;99.90;;;;;;5048221;28;20295;-63
2022/10/30 07:41:05;;;;;;;;;;;14.60;99.90;;;;;;5054329;28;19912;-62
2022/10/30 07:43:31;;;;;;;;;;;14.60;99.90;;;;;;5055661;28;19939;-63
2022/10/30 07:45:56;;;;;;;;;;;14.70;99.90;;;;;;5050629;28;19921;-61
2022/10/30 07:48:22;;;;;;;;;;;14.60;99.90;;;;;;5057501;28;19912;-61
2022/10/30 07:50:47;;;;;;;;;;;14.60;99.90;;;;;;5053169;28;19912;-61
2022/10/30 07:53:13;;;;;;;;;;;14.50;99.90;;;;;;5060855;28;19958;-61
2022/10/30 07:55:40;;;;;;;;;;;14.60;99.90;;;;;;5048927;28;19920;-61
2022/10/30 07:58:06;;;;;;;;;;;14.60;99.90;;;;;;5062670;28;19920;-62
2022/10/30 08:00:31;;;;;;;;;;;14.60;99.90;;;;;;5062868;28;19912;-62
2022/10/30 08:02:57;;;;;;;;;;;14.70;99.90;;;;;;5053413;28;20288;-62
2022/10/30 08:05:22;;;;;;;;;;;14.70;99.90;;;;;;5061522;28;19921;-61
2022/10/30 08:07:48;;;;;;;;;;;14.60;99.90;;;;;;5054258;28;20327;-62
2022/10/30 08:10:14;;;;;;;;;;;14.60;99.90;;;;;;5056425;28;19912;-61
2022/10/30 08:12:40;;;;;;;;;;;14.60;99.90;;;;;;5049004;28;19919;-63
2022/10/30 08:15:06;;;;;;;;;;;14.60;99.90;;;;;;5052630;28;20422;-63
2022/10/30 08:17:32;;;;;;;;;;;14.60;99.90;;;;;;5049021;28;19913;-62
2022/10/30 08:19:57;;;;;;;;;;;14.60;99.90;;;;;;5056400;28;20356;-63
2022/10/30 08:22:23;;;;;;;;;;;14.60;99.90;;;;;;5059712;28;20417;-63
2022/10/30 08:24:49;;;;;;;;;;;14.60;99.90;;;;;;5047563;28;19918;-62
2022/10/30 08:27:15;;;;;;;;;;;14.60;99.90;;;;;;5048291;28;19913;-62
2022/10/30 08:29:40;;;;;;;;;;;14.60;99.90;;;;;;5052258;28;19958;-62
2022/10/30 08:32:06;;;;;;;;;;;14.70;99.90;;;;;;5056004;28;19913;-62
2022/10/30 08:34:33;;;;;;;;;;;14.70;99.90;;;;;;5052305;28;19913;-62
2022/10/30 08:36:59;;;;;;;;;;;14.70;99.90;;;;;;5057082;28;20376;-62
2022/10/30 08:39:24;;;;;;;;;;;14.70;99.90;;;;;;5052235;28;19948;-62
2022/10/30 08:41:50;;;;;;;;;;;14.80;99.90;;;;;;5048313;28;19917;-62
2022/10/30 08:44:15;;;;;;;;;;;14.80;99.90;;;;;;5061161;28;19913;-63
2022/10/30 08:46:41;;;;;;;;;;;14.80;99.90;;;;;;5055532;28;19935;-63
2022/10/30 08:49:06;;;;;;;;;;;14.80;99.90;;;;;;5053273;28;19913;-63
2022/10/30 08:51:32;;;;;;;;;;;14.90;99.90;;;;;;5056761;28;20314;-63
2022/10/30 08:53:58;;;;;;;;;;;14.80;99.90;;;;;;5059672;28;20336;-63
2022/10/30 08:56:24;;;;;;;;;;;14.80;99.90;;;;;;5057725;28;19935;-62
2022/10/30 08:58:50;;;;;;;;;;;14.80;99.90;;;;;;5048942;28;20023;-63
2022/10/30 09:01:15;;;;;;;;;;;14.80;99.90;;;;;;5049007;28;19913;-62
2022/10/30 09:03:43;;;;;;;;;;;14.80;99.90;;;;;;5051407;28;19925;-62
2022/10/30 09:06:08;;;;;;;;;;;14.80;99.90;;;;;;5055581;28;19931;-62
2022/10/30 09:08:34;;;;;;;;;;;14.80;99.90;;;;;;5061962;28;20011;-62
2022/10/30 09:10:59;;;;;;;;;;;14.80;99.90;;;;;;5056148;28;19908;-62
2022/10/30 09:13:29;;;;;;;;;;;14.70;99.90;;;;;;5064245;28;19913;-63
2022/10/30 09:15:59;;;;;;;;;;;14.70;99.90;;;;;;5053279;28;19913;-62
2022/10/30 09:18:24;;;;;;;;;;;14.70;99.90;;;;;;5055638;28;19963;-63
2022/10/30 09:20:50;;;;;;;;;;;14.70;99.90;;;;;;5043489;28;19960;-63
2022/10/30 09:23:15;;;;;;;;;;;14.60;99.90;;;;;;5052466;28;19920;-63
2022/10/30 09:25:41;;;;;;;;;;;14.60;99.90;;;;;;5035527;28;19928;-63
2022/10/30 09:31:15;;;;;;;;;;;14.60;99.90;;;;;;5058669;28;20010;-64
2022/10/30 09:33:41;;;;;;;;;;;14.60;99.90;;;;;;5052724;28;20003;-63
2022/10/30 09:36:06;;;;;;;;;;;14.50;99.90;;;;;;5052282;28;20380;-62
2022/10/30 09:38:32;;;;;;;;;;;14.40;99.90;;;;;;5045658;28;20456;-62
2022/10/30 09:41:30;;;;;;;;;;;14.40;99.90;;;;;;5063580;28;19938;-62
2022/10/30 09:44:13;;;;;;;;;;;14.50;99.90;;;;;;5094251;28;19920;-62
2022/10/30 09:46:41;;;;;;;;;;;14.60;99.90;;;;;;5096315;28;19931;-63
2022/10/30 09:49:06;;;;;;;;;;;14.60;99.90;;;;;;5085998;28;19951;-63
2022/10/30 09:51:46;;;;;;;;;;;14.70;99.90;;;;;;5084375;28;19951;-63
2022/10/30 09:54:11;;;;;;;;;;;14.70;99.90;;;;;;5088599;28;19957;-63
2022/10/30 09:56:53;;;;;;;;;;;14.70;99.90;;;;;;5086239;28;19999;-62
2022/10/30 09:59:37;;;;;;;;;;;14.70;99.90;;;;;;5097736;28;19912;-61
2022/10/30 10:02:21;;;;;;;;;;;14.80;99.90;;;;;;5087598;28;20008;-63
2022/10/30 10:04:48;;;;;;;;;;;14.80;99.90;;;;;;5081954;28;19916;-63
2022/10/30 10:07:26;;;;;;;;;;;14.80;99.90;;;;;;5092161;28;19919;-63
2022/10/30 10:09:54;;;;;;;;;;;14.80;99.90;;;;;;5088391;28;19912;-63
2022/10/30 10:12:28;;;;;;;;;;;14.80;99.90;;;;;;5082093;28;19920;-63
2022/10/30 10:14:55;;;;;;;;;;;14.80;99.90;;;;;;5085662;28;20391;-62
2022/10/30 10:17:32;;;;;;;;;;;14.80;99.90;;;;;;5082227;28;19919;-64
2022/10/30 10:19:58;;;;;;;;;;;14.80;99.90;;;;;;5065849;28;19916;-63
2022/10/30 10:22:46;;;;;;;;;;;14.90;99.90;;;;;;5055050;28;19960;-62
2022/10/30 10:25:13;;;;;;;;;;;15.00;99.90;;;;;;5046210;28;19928;-62
2022/10/30 10:27:44;;;;;;;;;;;15.10;99.90;;;;;;5050247;28;19921;-62
2022/10/30 10:30:13;;;;;;;;;;;15.10;99.90;;;;;;5051311;28;19912;-63
2022/10/30 10:32:48;;;;;;;;;;;15.20;99.90;;;;;;5051141;28;20012;-63
2022/10/30 10:35:23;;;;;;;;;;;15.20;99.90;;;;;;5054489;28;19919;-63
2022/10/30 10:38:07;;;;;;;;;;;15.10;99.90;;;;;;5065485;28;20356;-62
2022/10/30 10:40:49;;;;;;;;;;;15.10;99.90;;;;;;5059084;28;19912;-62
2022/10/30 10:43:27;;;;;;;;;;;15.10;99.90;;;;;;5053487;28;19920;-62
2022/10/30 10:45:58;;;;;;;;;;;15.10;99.90;;;;;;5049845;28;19932;-61
2022/10/30 10:48:26;;;;;;;;;;;15.10;99.90;;;;;;5053926;28;20291;-62
2022/10/30 10:50:57;;;;;;;;;;;15.10;99.90;;;;;;5049347;28;19913;-63
2022/10/30 10:53:41;;;;;;;;;;;15.10;99.90;;;;;;5053081;28;19923;-62
2022/10/30 10:56:08;;;;;;;;;;;15.20;99.90;;;;;;5048241;28;19951;-63
2022/10/30 10:58:38;;;;;;;;;;;15.20;99.90;;;;;;5049179;28;19912;-65
2022/10/30 11:01:05;;;;;;;;;;;15.30;99.90;;;;;;5042229;28;19913;-63
2022/10/30 11:03:30;;;;;;;;;;;15.30;99.90;;;;;;5052980;28;20023;-63
2022/10/30 11:05:57;;;;;;;;;;;15.30;99.90;;;;;;5055914;28;19920;-64
2022/10/30 11:08:27;;;;;;;;;;;15.40;99.90;;;;;;5042884;28;19913;-63
2022/10/30 11:10:56;;;;;;;;;;;15.50;99.90;;;;;;5054224;28;20075;-62
2022/10/30 11:13:23;;;;;;;;;;;15.60;99.90;;;;;;5063511;28;19935;-63
2022/10/30 11:16:04;;;;;;;;;;;15.80;99.90;;;;;;5060396;28;20402;-63
2022/10/30 11:18:30;;;;;;;;;;;15.90;99.90;;;;;;5066258;28;19917;-63
2022/10/30 11:21:00;;;;;;;;;;;16.00;99.90;;;;;;5063263;28;19943;-63
2022/10/30 11:23:37;;;;;;;;;;;16.10;99.90;;;;;;5062963;28;20364;-63
2022/10/30 11:26:04;;;;;;;;;;;16.20;99.90;;;;;;5045412;28;19921;-63
2022/10/30 11:28:45;;;;;;;;;;;16.20;99.90;;;;;;5052990;28;19913;-63
2022/10/30 11:31:22;;;;;;;;;;;16.10;99.90;;;;;;5051519;28;19971;-63
2022/10/30 11:33:48;;;;;;;;;;;16.10;99.90;;;;;;5047293;28;20848;-63
2022/10/30 11:36:15;;;;;;;;;;;16.00;99.90;;;;;;5064075;28;20368;-64
2022/10/30 11:38:40;;;;;;;;;;;15.90;99.90;;;;;;5054762;28;19913;-64
2022/10/30 11:41:09;;;;;;;;;;;15.80;99.90;;;;;;5051900;28;20007;-63
2022/10/30 11:43:35;;;;;;;;;;;15.80;99.90;;;;;;5056633;28;19913;-63
2022/10/30 11:46:00;;;;;;;;;;;15.80;99.90;;;;;;5053788;28;20308;-63
2022/10/30 11:48:28;;;;;;;;;;;15.80;99.90;;;;;;5051128;28;19920;-63
2022/10/30 11:50:58;;;;;;;;;;;16.00;99.90;;;;;;5051628;28;19913;-61
2022/10/30 11:53:29;;;;;;;;;;;16.10;99.90;;;;;;5063538;28;20284;-62
2022/10/30 11:55:56;;;;;;;;;;;16.20;99.90;;;;;;5056496;28;19913;-62
2022/10/30 11:58:36;;;;;;;;;;;16.30;99.90;;;;;;5064264;28;19985;-62
2022/10/30 12:01:21;;;;;;;;;;;16.20;99.90;;;;;;5047548;28;20007;-62
2022/10/30 12:03:47;;;;;;;;;;;16.20;99.90;;;;;;5043483;28;19924;-62
2022/10/30 12:06:22;;;;;;;;;;;16.30;99.90;;;;;;5067587;28;20380;-62
2022/10/30 12:09:09;;;;;;;;;;;16.30;99.90;;;;;;5063406;28;19964;-62
2022/10/30 12:11:35;;;;;;;;;;;16.30;99.90;;;;;;5040099;28;20365;-61
2022/10/30 12:14:00;;;;;;;;;;;16.30;99.90;;;;;;5053623;28;19919;-62
2022/10/30 12:16:26;;;;;;;;;;;16.20;99.90;;;;;;5061310;28;19913;-62
2022/10/30 12:19:01;;;;;;;;;;;16.30;99.90;;;;;;5060052;28;19916;-62
2022/10/30 12:21:27;;;;;;;;;;;16.40;99.90;;;;;;5053655;28;19913;-62
2022/10/30 12:24:00;;;;;;;;;;;16.40;99.90;;;;;;5057741;28;19982;-62
2022/10/30 12:26:27;;;;;;;;;;;16.40;99.90;;;;;;5042886;28;19921;-61
2022/10/30 12:28:56;;;;;;;;;;;16.40;99.90;;;;;;5050044;28;19966;-62
2022/10/30 12:31:29;;;;;;;;;;;16.30;99.90;;;;;;5050325;28;19917;-62
2022/10/30 12:33:55;;;;;;;;;;;16.40;99.90;;;;;;5053718;28;19956;-62
2022/10/30 12:36:26;;;;;;;;;;;16.50;99.90;;;;;;5062332;28;19920;-62
2022/10/30 12:38:55;;;;;;;;;;;16.40;99.90;;;;;;5040245;28;20383;-62
2022/10/30 12:41:29;;;;;;;;;;;16.40;99.90;;;;;;5062727;28;20016;-61
2022/10/30 12:43:55;;;;;;;;;;;16.50;99.90;;;;;;5047684;28;19912;-61
2022/10/30 12:46:27;;;;;;;;;;;16.50;99.90;;;;;;5063682;28;19966;-62
2022/10/30 12:48:57;;;;;;;;;;;16.40;99.90;;;;;;5054090;28;19956;-61
2022/10/30 12:51:28;;;;;;;;;;;16.40;99.90;;;;;;5053043;28;19974;-62
2022/10/30 12:54:01;;;;;;;;;;;16.40;99.90;;;;;;5058320;28;19953;-63
2022/10/30 12:56:46;;;;;;;;;;;16.30;99.90;;;;;;5065458;28;19913;-61
2022/10/30 12:59:30;;;;;;;;;;;16.40;99.90;;;;;;5052184;28;20363;-61
2022/10/30 13:02:03;;;;;;;;;;;16.30;99.90;;;;;;5052080;28;19950;-61
2022/10/30 13:04:33;;;;;;;;;;;16.40;99.90;;;;;;5041855;28;19940;-62
2022/10/30 13:07:04;;;;;;;;;;;16.30;99.90;;;;;;5059081;28;19927;-63
2022/10/30 13:09:33;;;;;;;;;;;16.30;99.90;;;;;;5046503;28;19920;-63
2022/10/30 13:12:19;;;;;;;;;;;16.20;99.90;;;;;;5050753;28;20004;-63
2022/10/30 13:14:48;;;;;;;;;;;16.10;99.90;;;;;;5063257;28;19927;-62
2022/10/30 13:17:14;;;;;;;;;;;16.20;99.90;;;;;;5053258;28;19913;-62
2022/10/30 13:19:40;;;;;;;;;;;16.30;99.90;;;;;;5063350;28;19966;-62
2022/10/30 13:22:12;;;;;;;;;;;16.20;99.90;;;;;;5052188;28;20325;-61
2022/10/30 13:24:37;;;;;;;;;;;16.20;99.90;;;;;;5053965;28;19916;-61
2022/10/30 13:27:09;;;;;;;;;;;16.40;99.90;;;;;;5051156;28;20280;-62
2022/10/30 13:29:35;;;;;;;;;;;16.50;99.90;;;;;;5065250;28;19947;-61
2022/10/30 13:32:06;;;;;;;;;;;16.70;99.90;;;;;;5057725;28;19966;-61
2022/10/30 13:34:35;;;;;;;;;;;16.90;99.90;;;;;;5054292;28;19916;-63
2022/10/30 13:37:04;;;;;;;;;;;17.00;99.90;;;;;;5049905;28;19935;-61
2022/10/30 13:39:33;;;;;;;;;;;16.90;99.90;;;;;;5047679;28;19913;-62
2022/10/30 13:42:07;;;;;;;;;;;16.80;99.90;;;;;;5052565;28;20427;-60
2022/10/30 13:44:33;;;;;;;;;;;16.80;99.90;;;;;;5054353;28;20011;-62
2022/10/30 13:47:07;;;;;;;;;;;16.70;99.90;;;;;;5060952;28;20019;-65
2022/10/30 13:49:38;;;;;;;;;;;16.70;99.90;;;;;;5041402;28;19966;-62
2022/10/30 13:52:14;;;;;;;;;;;16.70;99.90;;;;;;5051227;28;19921;-62
2022/10/30 13:55:00;;;;;;;;;;;16.60;99.90;;;;;;5069765;28;19916;-62
2022/10/30 13:57:29;;;;;;;;;;;16.70;99.90;;;;;;5061589;28;19913;-63
2022/10/30 13:59:54;;;;;;;;;;;16.70;99.90;;;;;;5064273;28;20356;-62
2022/10/30 14:02:20;;;;;;;;;;;16.70;99.90;;;;;;5044651;28;19928;-63
2022/10/30 14:04:58;;;;;;;;;;;16.70;99.90;;;;;;5037739;28;20345;-62
2022/10/30 14:07:23;;;;;;;;;;;16.90;99.90;;;;;;5055137;28;19925;-62
2022/10/30 14:10:01;;;;;;;;;;;16.90;99.90;;;;;;5035043;28;19939;-63
2022/10/30 14:12:45;;;;;;;;;;;17.10;99.90;;;;;;5047550;28;20436;-63
2022/10/30 14:15:25;;;;;;;;;;;18.00;99.90;;;;;;5041070;28;19959;-62
2022/10/30 14:18:09;;;;;;;;;;;18.90;99.90;;;;;;5044008;28;19917;-62
2022/10/30 14:20:35;;;;;;;;;;;19.50;99.90;;;;;;5052959;28;19916;-62
2022/10/30 14:23:15;;;;;;;;;;;19.80;99.90;;;;;;5035643;28;19913;-63
2022/10/30 14:25:41;;;;;;;;;;;20.00;99.90;;;;;;5050161;28;19924;-63
2022/10/30 14:28:20;;;;;;;;;;;20.60;99.90;;;;;;5052294;28;19916;-66
2022/10/30 14:30:45;;;;;;;;;;;21.00;99.90;;;;;;5050641;28;20377;-65